Aura — WDJ4216 — position and weather

sailwx.info

Track history (hours):
 
Tides and Currents Weather Stations Pressure Air Temp Water Temp Dewpoint Dewpoint Depression Visibility Wind Speed Wind Dir Waves Ship Positions

Aura

Owner: Seabulk Towing, Lake Charles, LA. More information available from US FCC via Universal Licensing System and Coast Guard Vessel Documentation Center.

Last reported at 2017-Nov-17 19:31 UTC. Time now 2017-Nov-17 19:33 UTC.
Position N 27°55' W 082°27'.

Length 30 m.

Type: Other ship. MMSI: 367560980.

Date/timePositionNaut miles runAvg speedWind from/ knotsBaromVisibWave heightAir tempDewpointWater temp
2017-Nov-17 19:31N 27°55' W 082°27'0 0.0
2017-Nov-17 19:01N 27°55' W 082°27'0 0.0
2017-Nov-17 18:30N 27°55' W 082°27'0 0.0
2017-Nov-17 18:01N 27°55' W 082°27'0 0.8
2017-Nov-17 17:31N 27°55' W 082°27'0 0.3
2017-Nov-17 17:00N 27°55' W 082°27'0 0.1
2017-Nov-17 16:30N 27°55' W 082°27'2 3.5
2017-Nov-17 16:00N 27°53' W 082°26'2 4.6
2017-Nov-17 15:30N 27°55' W 082°27'0 0.0
2017-Nov-17 15:00N 27°55' W 082°27'0 0.0
2017-Nov-17 14:31N 27°55' W 082°27'0 0.0
2017-Nov-17 14:01N 27°55' W 082°27'0 0.0
2017-Nov-17 13:30N 27°55' W 082°27'0 0.0
2017-Nov-17 13:01N 27°55' W 082°27'0 0.0
2017-Nov-17 12:31N 27°55' W 082°27'0 0.0
2017-Nov-17 12:00N 27°55' W 082°27'0 0.0
2017-Nov-17 11:30N 27°55' W 082°27'0 0.0
2017-Nov-17 11:01N 27°55' W 082°27'0 0.0
2017-Nov-17 10:31N 27°55' W 082°27'0 0.0
2017-Nov-17 10:00N 27°55' W 082°27'0 0.0
2017-Nov-17 09:30N 27°55' W 082°27'0 0.0
2017-Nov-17 09:00N 27°55' W 082°27'0 0.0
2017-Nov-17 08:30N 27°55' W 082°27'0 0.0
2017-Nov-17 08:00N 27°55' W 082°27'0 0.0
2017-Nov-17 07:30N 27°55' W 082°27'0 0.0
2017-Nov-17 07:01N 27°55' W 082°27'0 0.0
2017-Nov-17 06:31N 27°55' W 082°27'0 0.5
2017-Nov-17 06:01N 27°55' W 082°27'1 1.5
2017-Nov-17 05:30N 27°54' W 082°26'1 2.3
2017-Nov-17 05:00N 27°53' W 082°26'2 4.2
2017-Nov-17 04:31N 27°55' W 082°27'0 0.0
2017-Nov-17 04:00N 27°55' W 082°27'0 0.0
2017-Nov-17 03:30N 27°55' W 082°27'0 0.0
2017-Nov-17 03:00N 27°55' W 082°27'0 0.0
2017-Nov-17 02:31N 27°55' W 082°27'0 0.0
2017-Nov-17 02:01N 27°55' W 082°27'0 0.0
2017-Nov-17 01:30N 27°55' W 082°27'0 0.0
2017-Nov-17 01:01N 27°55' W 082°27'0 0.0
2017-Nov-17 00:30N 27°55' W 082°27'0 0.0
2017-Nov-17 00:01N 27°55' W 082°27'0 0.0
2017-Nov-16 23:30N 27°55' W 082°27'0 0.4
2017-Nov-16 23:01N 27°55' W 082°27'0 0.3
2017-Nov-16 22:30N 27°55' W 082°27'0 0.6
2017-Nov-16 22:01N 27°55' W 082°27'0 0.0
2017-Nov-16 21:30N 27°55' W 082°27'0 0.0
2017-Nov-16 21:00N 27°55' W 082°27'0 0.0
2017-Nov-16 20:31N 27°55' W 082°27'0 0.0
2017-Nov-16 20:01N 27°55' W 082°27'0 0.0
2017-Nov-16 19:31N 27°55' W 082°27'0 0.0
2017-Nov-16 19:00N 27°55' W 082°27'0 0.0
2017-Nov-16 18:30N 27°55' W 082°27'0 0.0
2017-Nov-16 18:01N 27°55' W 082°27'0 0.0
2017-Nov-16 17:31N 27°55' W 082°27'0 0.0
2017-Nov-16 17:01N 27°55' W 082°27'0 0.0
2017-Nov-16 16:30N 27°55' W 082°27'0 0.0
2017-Nov-16 16:01N 27°55' W 082°27'0 0.9
2017-Nov-16 15:31N 27°55' W 082°27'0 0.0
2017-Nov-16 15:00N 27°55' W 082°27'1 2.7
2017-Nov-16 14:31N 27°54' W 082°26'510.1
2017-Nov-16 14:00N 27°49' W 082°27'6 0.5
2017-Nov-16 01:05N 27°44' W 082°32'112.1
2017-Nov-16 01:00N 27°45' W 082°32'610.9
2017-Nov-16 00:29N 27°49' W 082°27'611.9
2017-Nov-16 00:00N 27°54' W 082°26'1 2.0
2017-Nov-15 23:30N 27°55' W 082°27'1 2.6
2017-Nov-15 23:00N 27°55' W 082°25'0 0.1
2017-Nov-15 22:30N 27°55' W 082°25'1 1.4
2017-Nov-15 22:00N 27°55' W 082°26'7 3.9
2017-Nov-15 20:16N 27°48' W 082°25'0 0.1
2017-Nov-15 20:00N 27°48' W 082°25'1 2.5
2017-Nov-15 19:30N 27°49' W 082°26'4 8.6
2017-Nov-15 19:00N 27°53' W 082°27'3 5.4
2017-Nov-15 18:30N 27°55' W 082°27'1 2.7
2017-Nov-15 18:00N 27°57' W 082°27'0 0.1
2017-Nov-15 17:30N 27°57' W 082°27'0 0.1
2017-Nov-15 17:00N 27°57' W 082°27'0 0.0
2017-Nov-15 16:30N 27°57' W 082°27'0 0.7
2017-Nov-15 16:00N 27°56' W 082°27'0 0.9
2017-Nov-15 15:30N 27°56' W 082°27'1 1.7
2017-Nov-15 15:00N 27°55' W 082°27'0 0.2
2017-Nov-15 14:31N 27°55' W 082°27'2 3.0
2017-Nov-15 14:01N 27°54' W 082°26'5 8.4
2017-Nov-15 13:26N 27°49' W 082°27'8 1.4
2017-Nov-15 07:17N 27°42' W 082°33'310.3
2017-Nov-15 07:00N 27°45' W 082°32'5 8.6
2017-Nov-15 06:23N 27°48' W 082°27'4 9.4
2017-Nov-15 06:00N 27°52' W 082°27'4 7.7
2017-Nov-15 05:30N 27°56' W 082°26'0 0.1
2017-Nov-15 05:00N 27°56' W 082°26'1 1.9
2017-Nov-15 04:31N 27°55' W 082°26'2 4.5
2017-Nov-15 04:01N 27°53' W 082°26'1 2.4
2017-Nov-15 03:31N 27°54' W 082°26'1 2.7
2017-Nov-15 03:01N 27°55' W 082°27'0 0.0
2017-Nov-15 02:31N 27°55' W 082°27'0 0.0
2017-Nov-15 02:01N 27°55' W 082°27'0 0.0
2017-Nov-15 01:31N 27°55' W 082°27'0 0.0
2017-Nov-15 01:01N 27°55' W 082°27'0 0.0
2017-Nov-15 00:31N 27°55' W 082°27'0 0.0
2017-Nov-15 00:00N 27°55' W 082°27'0 0.0
2017-Nov-14 23:30N 27°55' W 082°27'0 0.0
2017-Nov-14 23:01N 27°55' W 082°27'0 0.0
2017-Nov-14 22:30N 27°55' W 082°27'0 0.0
2017-Nov-14 22:01N 27°55' W 082°27'0 0.0
2017-Nov-14 21:30N 27°55' W 082°27'0 0.0
2017-Nov-14 21:01N 27°55' W 082°27'2 3.6
2017-Nov-14 20:31N 27°54' W 082°25'0 0.1
2017-Nov-14 20:01N 27°54' W 082°25'1 1.1
2017-Nov-14 19:30N 27°54' W 082°26'6 3.0
2017-Nov-14 17:34N 27°48' W 082°25'1 8.9
2017-Nov-14 17:30N 27°49' W 082°25'3 7.1
2017-Nov-14 17:01N 27°52' W 082°27'3 6.5
2017-Nov-14 16:31N 27°55' W 082°26'0 0.0
2017-Nov-14 16:01N 27°55' W 082°26'0 0.0
2017-Nov-14 15:30N 27°55' W 082°26'0 0.0
2017-Nov-14 15:01N 27°55' W 082°26'0 0.0
2017-Nov-14 14:30N 27°55' W 082°26'0 0.0
2017-Nov-14 14:01N 27°55' W 082°26'0 0.0
2017-Nov-14 13:31N 27°55' W 082°26'0 0.0
2017-Nov-14 13:01N 27°55' W 082°26'0 0.0
2017-Nov-14 12:31N 27°55' W 082°26'0 0.0
2017-Nov-14 12:00N 27°55' W 082°26'0 0.0
2017-Nov-14 11:31N 27°55' W 082°26'0 0.0
2017-Nov-14 11:01N 27°55' W 082°26'0 0.0
2017-Nov-14 10:30N 27°55' W 082°26'0 0.0
2017-Nov-14 10:00N 27°55' W 082°26'0 0.0
2017-Nov-14 09:30N 27°55' W 082°26'0 0.0
2017-Nov-14 09:01N 27°55' W 082°26'0 0.0
2017-Nov-14 08:31N 27°55' W 082°26'0 0.9
2017-Nov-14 08:00N 27°55' W 082°26'0 0.4
2017-Nov-14 07:31N 27°56' W 082°26'0 0.9
2017-Nov-14 07:00N 27°55' W 082°26'0 0.0
2017-Nov-14 06:31N 27°55' W 082°26'1 1.9
2017-Nov-14 06:00N 27°54' W 082°26'2 3.8
2017-Nov-14 05:30N 27°56' W 082°27'0 0.2
2017-Nov-14 05:01N 27°56' W 082°27'2 4.2
2017-Nov-14 04:31N 27°54' W 082°26'0 0.4
2017-Nov-14 04:01N 27°54' W 082°26'1 2.7
2017-Nov-14 03:30N 27°55' W 082°27'0 0.0
2017-Nov-14 03:00N 27°55' W 082°27'0 0.0
2017-Nov-14 02:30N 27°55' W 082°27'0 0.0
2017-Nov-14 02:01N 27°55' W 082°27'0 0.0
2017-Nov-14 01:31N 27°55' W 082°27'0 0.0
2017-Nov-14 01:00N 27°55' W 082°27'0 0.0
2017-Nov-14 00:31N 27°55' W 082°27'0 0.0
2017-Nov-14 00:00N 27°55' W 082°27'0 0.0
2017-Nov-13 23:31N 27°55' W 082°27'0 0.0
2017-Nov-13 23:01N 27°55' W 082°27'0 0.0
2017-Nov-13 22:31N 27°55' W 082°27'0 0.0
2017-Nov-13 22:01N 27°55' W 082°27'0 0.0
2017-Nov-13 02:01N 27°55' W 082°27'0 0.0
2017-Nov-13 01:31N 27°55' W 082°27'0 0.0
2017-Nov-13 01:00N 27°55' W 082°27'0 0.0
2017-Nov-13 00:30N 27°55' W 082°27'0 0.0
2017-Nov-13 00:00N 27°55' W 082°27'0 0.0
2017-Nov-12 23:30N 27°55' W 082°27'0 0.0
2017-Nov-12 23:00N 27°55' W 082°27'0 0.0
2017-Nov-12 22:31N 27°55' W 082°27'0 0.0
2017-Nov-12 22:01N 27°55' W 082°27'0 0.0
2017-Nov-12 21:30N 27°55' W 082°27'0 0.0
2017-Nov-12 21:00N 27°55' W 082°27'0 0.0
2017-Nov-12 20:30N 27°55' W 082°27'0 0.0
2017-Nov-12 20:01N 27°55' W 082°27'0 0.0
2017-Nov-12 19:31N 27°55' W 082°27'0 0.0
2017-Nov-12 19:01N 27°55' W 082°27'1 2.6
2017-Nov-12 18:31N 27°54' W 082°26'1 1.1
2017-Nov-12 18:00N 27°54' W 082°25'2 3.2
2017-Nov-12 17:31N 27°55' W 082°27'0 0.0
2017-Nov-12 17:00N 27°55' W 082°27'0 0.0
2017-Nov-12 16:30N 27°55' W 082°27'0 0.0
2017-Nov-12 16:00N 27°55' W 082°27'0 0.0
2017-Nov-12 15:30N 27°55' W 082°27'0 0.0
2017-Nov-12 15:01N 27°55' W 082°27'0 0.0
2017-Nov-12 14:30N 27°55' W 082°27'0 0.0
2017-Nov-12 14:00N 27°55' W 082°27'0 0.0
2017-Nov-12 13:30N 27°55' W 082°27'0 0.0
2017-Nov-12 13:01N 27°55' W 082°27'0 0.0
2017-Nov-12 12:31N 27°55' W 082°27'0 0.0
2017-Nov-12 12:00N 27°55' W 082°27'0 0.0
2017-Nov-12 11:30N 27°55' W 082°27'0 0.0
2017-Nov-12 11:00N 27°55' W 082°27'1 2.5
2017-Nov-12 10:30N 27°57' W 082°27'0 0.9
2017-Nov-12 10:00N 27°57' W 082°27'2 3.4
2017-Nov-12 09:30N 27°55' W 082°27'0 0.0
2017-Nov-12 09:00N 27°55' W 082°27'0 0.0
2017-Nov-12 08:31N 27°55' W 082°27'0 0.0
2017-Nov-12 08:01N 27°55' W 082°27'0 0.0
2017-Nov-12 07:31N 27°55' W 082°27'0 0.0
2017-Nov-12 07:00N 27°55' W 082°27'0 0.0
2017-Nov-12 06:31N 27°55' W 082°27'0 0.0
2017-Nov-12 06:00N 27°55' W 082°27'0 0.0
2017-Nov-12 05:31N 27°55' W 082°27'0 0.0
2017-Nov-12 05:00N 27°55' W 082°27'0 0.0
2017-Nov-12 04:30N 27°55' W 082°27'0 0.0
2017-Nov-12 04:01N 27°55' W 082°27'0 0.0
2017-Nov-12 03:31N 27°55' W 082°27'0 0.0
2017-Nov-12 03:01N 27°55' W 082°27'0 0.0
2017-Nov-12 02:30N 27°55' W 082°27'0 0.0
2017-Nov-12 02:00N 27°55' W 082°27'0 0.0
2017-Nov-12 01:30N 27°55' W 082°27'0 0.0
2017-Nov-12 01:00N 27°55' W 082°27'0 0.0
2017-Nov-12 00:31N 27°55' W 082°27'0 0.0
2017-Nov-12 00:00N 27°55' W 082°27'0 0.0
2017-Nov-11 23:31N 27°55' W 082°27'0 0.0
2017-Nov-11 23:01N 27°55' W 082°27'0 0.0
2017-Nov-11 22:31N 27°55' W 082°27'0 0.0
2017-Nov-11 22:00N 27°55' W 082°27'0 0.0
2017-Nov-11 21:30N 27°55' W 082°27'0 0.0
2017-Nov-11 21:01N 27°55' W 082°27'0 0.0
2017-Nov-11 20:31N 27°55' W 082°27'0 0.0
2017-Nov-11 20:01N 27°55' W 082°27'0 0.0
2017-Nov-11 19:31N 27°55' W 082°27'0 0.0
2017-Nov-11 19:00N 27°55' W 082°27'0 0.0
2017-Nov-11 18:31N 27°55' W 082°27'2 3.1
2017-Nov-11 18:00N 27°54' W 082°26'6 4.6
2017-Nov-11 16:40N 27°48' W 082°25'1 1.8
2017-Nov-11 16:18N 27°48' W 082°25'0 0.1
2017-Nov-11 16:00N 27°48' W 082°25'0 0.3
2017-Nov-11 14:59N 27°48' W 082°25'0 1.0
2017-Nov-11 14:30N 27°48' W 082°25'1 2.1
2017-Nov-11 14:01N 27°49' W 082°26'1 1.4
2017-Nov-11 13:30N 27°49' W 082°27'1 2.6
2017-Nov-11 13:00N 27°50' W 082°27'3 5.6
2017-Nov-11 12:28N 27°51' W 082°24'0 0.0
2017-Nov-11 11:36N 27°51' W 082°24'0 0.1
2017-Nov-11 11:30N 27°51' W 082°24'3 5.7
2017-Nov-11 11:01N 27°52' W 082°27'2 4.6
2017-Nov-11 10:31N 27°55' W 082°26'1 2.2
2017-Nov-11 10:01N 27°54' W 082°26'2 3.5
2017-Nov-11 09:31N 27°55' W 082°27'0 0.0
2017-Nov-11 09:00N 27°55' W 082°27'0 0.0
2017-Nov-11 08:31N 27°55' W 082°27'0 0.0
2017-Nov-11 08:00N 27°55' W 082°27'0 0.0
2017-Nov-11 07:31N 27°55' W 082°27'0 0.0
2017-Nov-11 07:01N 27°55' W 082°27'0 0.0
2017-Nov-11 06:30N 27°55' W 082°27'0 0.0
2017-Nov-11 06:01N 27°55' W 082°27'0 0.0
2017-Nov-11 05:30N 27°55' W 082°27'0 0.0
2017-Nov-11 05:01N 27°55' W 082°27'0 0.0
2017-Nov-11 04:31N 27°55' W 082°27'0 0.0
2017-Nov-11 04:00N 27°55' W 082°27'0 0.0
2017-Nov-11 03:30N 27°55' W 082°27'0 0.0
2017-Nov-11 03:01N 27°55' W 082°27'0 0.0
2017-Nov-11 02:31N 27°55' W 082°27'0 0.0
2017-Nov-11 02:01N 27°55' W 082°27'0 0.0
2017-Nov-11 01:31N 27°55' W 082°27'0 0.0
2017-Nov-11 01:01N 27°55' W 082°27'0 0.0
2017-Nov-11 00:31N 27°55' W 082°27'0 0.0
2017-Nov-11 00:00N 27°55' W 082°27'0 0.0
2017-Nov-10 23:30N 27°55' W 082°27'0 0.0
2017-Nov-10 23:01N 27°55' W 082°27'0 0.0
2017-Nov-10 22:31N 27°55' W 082°27'0 0.0
2017-Nov-10 22:00N 27°55' W 082°27'0 0.0
2017-Nov-10 21:30N 27°55' W 082°27'2 3.5
2017-Nov-10 21:00N 27°54' W 082°26'5 5.7
2017-Nov-10 20:03N 27°48' W 082°25'0 2.1
2017-Nov-10 19:52N 27°48' W 082°25'0 0.9
2017-Nov-10 19:28N 27°48' W 082°25'10 0.6
2017-Nov-10 02:37N 27°42' W 082°33'2 8.0
2017-Nov-10 02:20N 27°44' W 082°32'3 8.3
2017-Nov-10 02:00N 27°47' W 082°31'4 8.7
2017-Nov-10 01:30N 27°49' W 082°27'4 8.8
2017-Nov-10 01:00N 27°53' W 082°26'2 4.3
2017-Nov-10 00:31N 27°55' W 082°27'0 0.0
2017-Nov-10 00:00N 27°55' W 082°27'0 0.0
2017-Nov-09 23:30N 27°55' W 082°27'0 0.0
2017-Nov-09 23:01N 27°55' W 082°27'0 0.0
2017-Nov-09 22:30N 27°55' W 082°27'0 0.0
2017-Nov-09 22:00N 27°55' W 082°27'0 0.0
2017-Nov-09 21:31N 27°55' W 082°27'0 0.0
2017-Nov-09 21:01N 27°55' W 082°27'0 0.0
2017-Nov-09 20:31N 27°55' W 082°27'0 0.5
2017-Nov-09 20:00N 27°55' W 082°27'0 0.4
2017-Nov-09 19:31N 27°55' W 082°27'0 0.5
2017-Nov-09 19:01N 27°55' W 082°27'0 0.0
2017-Nov-09 18:31N 27°55' W 082°27'0 0.0
2017-Nov-09 18:00N 27°55' W 082°27'0 0.0
2017-Nov-09 17:31N 27°55' W 082°27'0 0.0
2017-Nov-09 17:00N 27°55' W 082°27'0 0.0
2017-Nov-09 16:31N 27°55' W 082°27'0 0.0
2017-Nov-09 16:00N 27°55' W 082°27'0 0.0
2017-Nov-09 15:30N 27°55' W 082°27'0 0.0
2017-Nov-09 15:00N 27°55' W 082°27'0 0.0
2017-Nov-09 14:31N 27°55' W 082°27'0 0.0
2017-Nov-09 14:01N 27°55' W 082°27'0 0.0
2017-Nov-09 13:31N 27°55' W 082°27'0 0.0
2017-Nov-09 13:00N 27°55' W 082°27'0 0.0
2017-Nov-09 12:31N 27°55' W 082°27'0 0.0
2017-Nov-09 12:00N 27°55' W 082°27'0 0.0
2017-Nov-09 11:31N 27°55' W 082°27'0 0.0
2017-Nov-09 11:01N 27°55' W 082°27'0 0.0
2017-Nov-09 10:30N 27°55' W 082°27'0 0.0
2017-Nov-09 10:00N 27°55' W 082°27'0 0.0
2017-Nov-09 09:31N 27°55' W 082°27'0 0.0
2017-Nov-09 09:01N 27°55' W 082°27'0 0.0
2017-Nov-09 08:31N 27°55' W 082°27'0 0.0
2017-Nov-09 08:01N 27°55' W 082°27'1 1.2
2017-Nov-09 07:31N 27°55' W 082°27'1 2.5
2017-Nov-09 07:00N 27°56' W 082°26'1 1.7
2017-Nov-09 06:31N 27°55' W 082°26'0 0.0
2017-Nov-09 06:00N 27°55' W 082°26'0 0.0
2017-Nov-09 05:31N 27°55' W 082°26'0 0.0
2017-Nov-09 05:00N 27°55' W 082°26'0 0.0
2017-Nov-09 04:31N 27°55' W 082°26'0 0.0
2017-Nov-09 04:01N 27°55' W 082°26'0 0.0
2017-Nov-09 03:30N 27°55' W 082°26'1 1.9
2017-Nov-09 03:01N 27°54' W 082°26'0 0.0
2017-Nov-09 02:31N 27°54' W 082°26'0 0.8
2017-Nov-09 02:00N 27°54' W 082°26'1 1.1
2017-Nov-09 01:31N 27°55' W 082°27'0 1.0
2017-Nov-09 01:00N 27°54' W 082°26'0 0.0
2017-Nov-09 00:31N 27°54' W 082°26'0 0.0
2017-Nov-09 00:00N 27°54' W 082°26'0 0.0
2017-Nov-08 23:31N 27°54' W 082°26'4 6.2
2017-Nov-08 22:54N 27°51' W 082°27'3 1.6
2017-Nov-08 21:14N 27°51' W 082°24'0 2.2
2017-Nov-08 21:01N 27°51' W 082°24'2 4.6
2017-Nov-08 20:30N 27°51' W 082°27'3 5.5
2017-Nov-08 20:00N 27°53' W 082°26'2 4.8
2017-Nov-08 19:30N 27°56' W 082°26'0 0.0
2017-Nov-08 19:00N 27°56' W 082°26'1 1.2
2017-Nov-08 18:31N 27°55' W 082°26'1 2.1
2017-Nov-08 18:01N 27°55' W 082°27'0 0.0
2017-Nov-08 17:31N 27°55' W 082°27'0 0.0
2017-Nov-08 17:00N 27°55' W 082°27'0 0.0
2017-Nov-08 16:30N 27°55' W 082°27'0 0.5
2017-Nov-08 16:01N 27°55' W 082°27'1 1.4
2017-Nov-08 15:31N 27°54' W 082°26'0 0.0
2017-Nov-08 15:01N 27°54' W 082°26'0 0.0
2017-Nov-08 14:30N 27°54' W 082°26'0 0.0
2017-Nov-08 14:00N 27°54' W 082°26'0 0.0
2017-Nov-08 13:30N 27°54' W 082°26'0 0.0
2017-Nov-08 13:01N 27°54' W 082°26'0 0.0
2017-Nov-08 12:30N 27°54' W 082°26'0 0.0
2017-Nov-08 12:01N 27°54' W 082°26'1 1.4
2017-Nov-08 11:31N 27°54' W 082°26'1 1.8
2017-Nov-08 11:00N 27°54' W 082°25'0 0.0
2017-Nov-08 10:30N 27°54' W 082°25'2 4.4
2017-Nov-08 10:00N 27°55' W 082°27'0 0.0
2017-Nov-08 09:30N 27°55' W 082°27'0 0.0
2017-Nov-08 09:00N 27°55' W 082°27'0 0.0
2017-Nov-08 08:30N 27°55' W 082°27'0 0.0
2017-Nov-08 08:00N 27°55' W 082°27'0 0.0
2017-Nov-08 07:30N 27°55' W 082°27'0 0.0
2017-Nov-08 07:01N 27°55' W 082°27'0 0.0
2017-Nov-08 06:31N 27°55' W 082°27'0 0.0
2017-Nov-08 06:00N 27°55' W 082°27'0 0.0
2017-Nov-08 05:30N 27°55' W 082°27'0 0.0
2017-Nov-08 05:00N 27°55' W 082°27'0 0.0
2017-Nov-08 04:30N 27°55' W 082°27'0 0.0
2017-Nov-08 04:00N 27°55' W 082°27'0 0.0
2017-Nov-08 03:30N 27°55' W 082°27'0 0.0
2017-Nov-08 03:01N 27°55' W 082°27'1 2.5
2017-Nov-08 02:30N 27°57' W 082°27'0 0.3
2017-Nov-08 02:01N 27°57' W 082°27'1 2.7
2017-Nov-08 01:30N 27°55' W 082°27'0 0.1
2017-Nov-08 01:00N 27°55' W 082°27'0 0.0
2017-Nov-08 00:30N 27°55' W 082°27'0 0.0
2017-Nov-08 00:00N 27°55' W 082°27'0 0.0
2017-Nov-07 23:30N 27°55' W 082°27'0 0.0
2017-Nov-07 23:01N 27°55' W 082°27'0 0.0
2017-Nov-07 22:30N 27°55' W 082°27'0 0.0
2017-Nov-07 22:01N 27°55' W 082°27'0 0.0
2017-Nov-07 21:31N 27°55' W 082°27'3 5.6
2017-Nov-07 20:59N 27°52' W 082°26'4 3.7
2017-Nov-07 19:50N 27°48' W 082°25'  
Track history (hours):
 
Tides and Currents Weather Stations Pressure Air Temp Water Temp Dewpoint Dewpoint Depression Visibility Wind Speed Wind Dir Waves Ship Positions

Aura

Owner: Seabulk Towing, Lake Charles, LA. More information available from US FCC via Universal Licensing System and Coast Guard Vessel Documentation Center.

Last reported at 2017-Nov-17 19:31 UTC. Time now 2017-Nov-17 19:33 UTC.
Position N 27°55' W 082°27'.

Length 30 m.

Type: Other ship. MMSI: 367560980.

Date/timePositionNaut miles runAvg speedWind from/ knotsBaromVisibWave heightAir tempDewpointWater temp
2017-Nov-17 19:31N 27°55' W 082°27'0 0.0
2017-Nov-17 19:01N 27°55' W 082°27'0 0.0
2017-Nov-17 18:30N 27°55' W 082°27'0 0.0
2017-Nov-17 18:01N 27°55' W 082°27'0 0.8
2017-Nov-17 17:31N 27°55' W 082°27'0 0.3
2017-Nov-17 17:00N 27°55' W 082°27'0 0.1
2017-Nov-17 16:30N 27°55' W 082°27'2 3.5
2017-Nov-17 16:00N 27°53' W 082°26'2 4.6
2017-Nov-17 15:30N 27°55' W 082°27'0 0.0
2017-Nov-17 15:00N 27°55' W 082°27'0 0.0
2017-Nov-17 14:31N 27°55' W 082°27'0 0.0
2017-Nov-17 14:01N 27°55' W 082°27'0 0.0
2017-Nov-17 13:30N 27°55' W 082°27'0 0.0
2017-Nov-17 13:01N 27°55' W 082°27'0 0.0
2017-Nov-17 12:31N 27°55' W 082°27'0 0.0
2017-Nov-17 12:00N 27°55' W 082°27'0 0.0
2017-Nov-17 11:30N 27°55' W 082°27'0 0.0
2017-Nov-17 11:01N 27°55' W 082°27'0 0.0
2017-Nov-17 10:31N 27°55' W 082°27'0 0.0
2017-Nov-17 10:00N 27°55' W 082°27'0 0.0
2017-Nov-17 09:30N 27°55' W 082°27'0 0.0
2017-Nov-17 09:00N 27°55' W 082°27'0 0.0
2017-Nov-17 08:30N 27°55' W 082°27'0 0.0
2017-Nov-17 08:00N 27°55' W 082°27'0 0.0
2017-Nov-17 07:30N 27°55' W 082°27'0 0.0
2017-Nov-17 07:01N 27°55' W 082°27'0 0.0
2017-Nov-17 06:31N 27°55' W 082°27'0 0.5
2017-Nov-17 06:01N 27°55' W 082°27'1 1.5
2017-Nov-17 05:30N 27°54' W 082°26'1 2.3
2017-Nov-17 05:00N 27°53' W 082°26'2 4.2
2017-Nov-17 04:31N 27°55' W 082°27'0 0.0
2017-Nov-17 04:00N 27°55' W 082°27'0 0.0
2017-Nov-17 03:30N 27°55' W 082°27'0 0.0
2017-Nov-17 03:00N 27°55' W 082°27'0 0.0
2017-Nov-17 02:31N 27°55' W 082°27'0 0.0
2017-Nov-17 02:01N 27°55' W 082°27'0 0.0
2017-Nov-17 01:30N 27°55' W 082°27'0 0.0
2017-Nov-17 01:01N 27°55' W 082°27'0 0.0
2017-Nov-17 00:30N 27°55' W 082°27'0 0.0
2017-Nov-17 00:01N 27°55' W 082°27'0 0.0
2017-Nov-16 23:30N 27°55' W 082°27'0 0.4
2017-Nov-16 23:01N 27°55' W 082°27'0 0.3
2017-Nov-16 22:30N 27°55' W 082°27'0 0.6
2017-Nov-16 22:01N 27°55' W 082°27'0 0.0
2017-Nov-16 21:30N 27°55' W 082°27'0 0.0
2017-Nov-16 21:00N 27°55' W 082°27'0 0.0
2017-Nov-16 20:31N 27°55' W 082°27'0 0.0
2017-Nov-16 20:01N 27°55' W 082°27'0 0.0
2017-Nov-16 19:31N 27°55' W 082°27'0 0.0
2017-Nov-16 19:00N 27°55' W 082°27'0 0.0
2017-Nov-16 18:30N 27°55' W 082°27'0 0.0
2017-Nov-16 18:01N 27°55' W 082°27'0 0.0
2017-Nov-16 17:31N 27°55' W 082°27'0 0.0
2017-Nov-16 17:01N 27°55' W 082°27'0 0.0
2017-Nov-16 16:30N 27°55' W 082°27'0 0.0
2017-Nov-16 16:01N 27°55' W 082°27'0 0.9
2017-Nov-16 15:31N 27°55' W 082°27'0 0.0
2017-Nov-16 15:00N 27°55' W 082°27'1 2.7
2017-Nov-16 14:31N 27°54' W 082°26'510.1
2017-Nov-16 14:00N 27°49' W 082°27'6 0.5
2017-Nov-16 01:05N 27°44' W 082°32'112.1
2017-Nov-16 01:00N 27°45' W 082°32'610.9
2017-Nov-16 00:29N 27°49' W 082°27'611.9
2017-Nov-16 00:00N 27°54' W 082°26'1 2.0
2017-Nov-15 23:30N 27°55' W 082°27'1 2.6
2017-Nov-15 23:00N 27°55' W 082°25'0 0.1
2017-Nov-15 22:30N 27°55' W 082°25'1 1.4
2017-Nov-15 22:00N 27°55' W 082°26'7 3.9
2017-Nov-15 20:16N 27°48' W 082°25'0 0.1
2017-Nov-15 20:00N 27°48' W 082°25'1 2.5
2017-Nov-15 19:30N 27°49' W 082°26'4 8.6
2017-Nov-15 19:00N 27°53' W 082°27'3 5.4
2017-Nov-15 18:30N 27°55' W 082°27'1 2.7
2017-Nov-15 18:00N 27°57' W 082°27'0 0.1
2017-Nov-15 17:30N 27°57' W 082°27'0 0.1
2017-Nov-15 17:00N 27°57' W 082°27'0 0.0
2017-Nov-15 16:30N 27°57' W 082°27'0 0.7
2017-Nov-15 16:00N 27°56' W 082°27'0 0.9
2017-Nov-15 15:30N 27°56' W 082°27'1 1.7
2017-Nov-15 15:00N 27°55' W 082°27'0 0.2
2017-Nov-15 14:31N 27°55' W 082°27'2 3.0
2017-Nov-15 14:01N 27°54' W 082°26'5 8.4
2017-Nov-15 13:26N 27°49' W 082°27'8 1.4
2017-Nov-15 07:17N 27°42' W 082°33'310.3
2017-Nov-15 07:00N 27°45' W 082°32'5 8.6
2017-Nov-15 06:23N 27°48' W 082°27'4 9.4
2017-Nov-15 06:00N 27°52' W 082°27'4 7.7
2017-Nov-15 05:30N 27°56' W 082°26'0 0.1
2017-Nov-15 05:00N 27°56' W 082°26'1 1.9
2017-Nov-15 04:31N 27°55' W 082°26'2 4.5
2017-Nov-15 04:01N 27°53' W 082°26'1 2.4
2017-Nov-15 03:31N 27°54' W 082°26'1 2.7
2017-Nov-15 03:01N 27°55' W 082°27'0 0.0
2017-Nov-15 02:31N 27°55' W 082°27'0 0.0
2017-Nov-15 02:01N 27°55' W 082°27'0 0.0
2017-Nov-15 01:31N 27°55' W 082°27'0 0.0
2017-Nov-15 01:01N 27°55' W 082°27'0 0.0
2017-Nov-15 00:31N 27°55' W 082°27'0 0.0
2017-Nov-15 00:00N 27°55' W 082°27'0 0.0
2017-Nov-14 23:30N 27°55' W 082°27'0 0.0
2017-Nov-14 23:01N 27°55' W 082°27'0 0.0
2017-Nov-14 22:30N 27°55' W 082°27'0 0.0
2017-Nov-14 22:01N 27°55' W 082°27'0 0.0
2017-Nov-14 21:30N 27°55' W 082°27'0 0.0
2017-Nov-14 21:01N 27°55' W 082°27'2 3.6
2017-Nov-14 20:31N 27°54' W 082°25'0 0.1
2017-Nov-14 20:01N 27°54' W 082°25'1 1.1
2017-Nov-14 19:30N 27°54' W 082°26'6 3.0
2017-Nov-14 17:34N 27°48' W 082°25'1 8.9
2017-Nov-14 17:30N 27°49' W 082°25'3 7.1
2017-Nov-14 17:01N 27°52' W 082°27'3 6.5
2017-Nov-14 16:31N 27°55' W 082°26'0 0.0
2017-Nov-14 16:01N 27°55' W 082°26'0 0.0
2017-Nov-14 15:30N 27°55' W 082°26'0 0.0
2017-Nov-14 15:01N 27°55' W 082°26'0 0.0
2017-Nov-14 14:30N 27°55' W 082°26'0 0.0
2017-Nov-14 14:01N 27°55' W 082°26'0 0.0
2017-Nov-14 13:31N 27°55' W 082°26'0 0.0
2017-Nov-14 13:01N 27°55' W 082°26'0 0.0
2017-Nov-14 12:31N 27°55' W 082°26'0 0.0
2017-Nov-14 12:00N 27°55' W 082°26'0 0.0
2017-Nov-14 11:31N 27°55' W 082°26'0 0.0
2017-Nov-14 11:01N 27°55' W 082°26'0 0.0
2017-Nov-14 10:30N 27°55' W 082°26'0 0.0
2017-Nov-14 10:00N 27°55' W 082°26'0 0.0
2017-Nov-14 09:30N 27°55' W 082°26'0 0.0
2017-Nov-14 09:01N 27°55' W 082°26'0 0.0
2017-Nov-14 08:31N 27°55' W 082°26'0 0.9
2017-Nov-14 08:00N 27°55' W 082°26'0 0.4
2017-Nov-14 07:31N 27°56' W 082°26'0 0.9
2017-Nov-14 07:00N 27°55' W 082°26'0 0.0
2017-Nov-14 06:31N 27°55' W 082°26'1 1.9
2017-Nov-14 06:00N 27°54' W 082°26'2 3.8
2017-Nov-14 05:30N 27°56' W 082°27'0 0.2
2017-Nov-14 05:01N 27°56' W 082°27'2 4.2
2017-Nov-14 04:31N 27°54' W 082°26'0 0.4
2017-Nov-14 04:01N 27°54' W 082°26'1 2.7
2017-Nov-14 03:30N 27°55' W 082°27'0 0.0
2017-Nov-14 03:00N 27°55' W 082°27'0 0.0
2017-Nov-14 02:30N 27°55' W 082°27'0 0.0
2017-Nov-14 02:01N 27°55' W 082°27'0 0.0
2017-Nov-14 01:31N 27°55' W 082°27'0 0.0
2017-Nov-14 01:00N 27°55' W 082°27'0 0.0
2017-Nov-14 00:31N 27°55' W 082°27'0 0.0
2017-Nov-14 00:00N 27°55' W 082°27'0 0.0
2017-Nov-13 23:31N 27°55' W 082°27'0 0.0
2017-Nov-13 23:01N 27°55' W 082°27'0 0.0
2017-Nov-13 22:31N 27°55' W 082°27'0 0.0
2017-Nov-13 22:01N 27°55' W 082°27'0 0.0
2017-Nov-13 02:01N 27°55' W 082°27'0 0.0
2017-Nov-13 01:31N 27°55' W 082°27'0 0.0
2017-Nov-13 01:00N 27°55' W 082°27'0 0.0
2017-Nov-13 00:30N 27°55' W 082°27'0 0.0
2017-Nov-13 00:00N 27°55' W 082°27'0 0.0
2017-Nov-12 23:30N 27°55' W 082°27'0 0.0
2017-Nov-12 23:00N 27°55' W 082°27'0 0.0
2017-Nov-12 22:31N 27°55' W 082°27'0 0.0
2017-Nov-12 22:01N 27°55' W 082°27'0 0.0
2017-Nov-12 21:30N 27°55' W 082°27'0 0.0
2017-Nov-12 21:00N 27°55' W 082°27'0 0.0
2017-Nov-12 20:30N 27°55' W 082°27'0 0.0
2017-Nov-12 20:01N 27°55' W 082°27'0 0.0
2017-Nov-12 19:31N 27°55' W 082°27'0 0.0
2017-Nov-12 19:01N 27°55' W 082°27'1 2.6
2017-Nov-12 18:31N 27°54' W 082°26'1 1.1
2017-Nov-12 18:00N 27°54' W 082°25'2 3.2
2017-Nov-12 17:31N 27°55' W 082°27'0 0.0
2017-Nov-12 17:00N 27°55' W 082°27'0 0.0
2017-Nov-12 16:30N 27°55' W 082°27'0 0.0
2017-Nov-12 16:00N 27°55' W 082°27'0 0.0
2017-Nov-12 15:30N 27°55' W 082°27'0 0.0
2017-Nov-12 15:01N 27°55' W 082°27'0 0.0
2017-Nov-12 14:30N 27°55' W 082°27'0 0.0
2017-Nov-12 14:00N 27°55' W 082°27'0 0.0
2017-Nov-12 13:30N 27°55' W 082°27'0 0.0
2017-Nov-12 13:01N 27°55' W 082°27'0 0.0
2017-Nov-12 12:31N 27°55' W 082°27'0 0.0
2017-Nov-12 12:00N 27°55' W 082°27'0 0.0
2017-Nov-12 11:30N 27°55' W 082°27'0 0.0
2017-Nov-12 11:00N 27°55' W 082°27'1 2.5
2017-Nov-12 10:30N 27°57' W 082°27'0 0.9
2017-Nov-12 10:00N 27°57' W 082°27'2 3.4
2017-Nov-12 09:30N 27°55' W 082°27'0 0.0
2017-Nov-12 09:00N 27°55' W 082°27'0 0.0
2017-Nov-12 08:31N 27°55' W 082°27'0 0.0
2017-Nov-12 08:01N 27°55' W 082°27'0 0.0
2017-Nov-12 07:31N 27°55' W 082°27'0 0.0
2017-Nov-12 07:00N 27°55' W 082°27'0 0.0
2017-Nov-12 06:31N 27°55' W 082°27'0 0.0
2017-Nov-12 06:00N 27°55' W 082°27'0 0.0
2017-Nov-12 05:31N 27°55' W 082°27'0 0.0
2017-Nov-12 05:00N 27°55' W 082°27'0 0.0
2017-Nov-12 04:30N 27°55' W 082°27'0 0.0
2017-Nov-12 04:01N 27°55' W 082°27'0 0.0
2017-Nov-12 03:31N 27°55' W 082°27'0 0.0
2017-Nov-12 03:01N 27°55' W 082°27'0 0.0
2017-Nov-12 02:30N 27°55' W 082°27'0 0.0
2017-Nov-12 02:00N 27°55' W 082°27'0 0.0
2017-Nov-12 01:30N 27°55' W 082°27'0 0.0
2017-Nov-12 01:00N 27°55' W 082°27'0 0.0
2017-Nov-12 00:31N 27°55' W 082°27'0 0.0
2017-Nov-12 00:00N 27°55' W 082°27'0 0.0
2017-Nov-11 23:31N 27°55' W 082°27'0 0.0
2017-Nov-11 23:01N 27°55' W 082°27'0 0.0
2017-Nov-11 22:31N 27°55' W 082°27'0 0.0
2017-Nov-11 22:00N 27°55' W 082°27'0 0.0
2017-Nov-11 21:30N 27°55' W 082°27'0 0.0
2017-Nov-11 21:01N 27°55' W 082°27'0 0.0
2017-Nov-11 20:31N 27°55' W 082°27'0 0.0
2017-Nov-11 20:01N 27°55' W 082°27'0 0.0
2017-Nov-11 19:31N 27°55' W 082°27'0 0.0
2017-Nov-11 19:00N 27°55' W 082°27'0 0.0
2017-Nov-11 18:31N 27°55' W 082°27'2 3.1
2017-Nov-11 18:00N 27°54' W 082°26'6 4.6
2017-Nov-11 16:40N 27°48' W 082°25'1 1.8
2017-Nov-11 16:18N 27°48' W 082°25'0 0.1
2017-Nov-11 16:00N 27°48' W 082°25'0 0.3
2017-Nov-11 14:59N 27°48' W 082°25'0 1.0
2017-Nov-11 14:30N 27°48' W 082°25'1 2.1
2017-Nov-11 14:01N 27°49' W 082°26'1 1.4
2017-Nov-11 13:30N 27°49' W 082°27'1 2.6
2017-Nov-11 13:00N 27°50' W 082°27'3 5.6
2017-Nov-11 12:28N 27°51' W 082°24'0 0.0
2017-Nov-11 11:36N 27°51' W 082°24'0 0.1
2017-Nov-11 11:30N 27°51' W 082°24'3 5.7
2017-Nov-11 11:01N 27°52' W 082°27'2 4.6
2017-Nov-11 10:31N 27°55' W 082°26'1 2.2
2017-Nov-11 10:01N 27°54' W 082°26'2 3.5
2017-Nov-11 09:31N 27°55' W 082°27'0 0.0
2017-Nov-11 09:00N 27°55' W 082°27'0 0.0
2017-Nov-11 08:31N 27°55' W 082°27'0 0.0
2017-Nov-11 08:00N 27°55' W 082°27'0 0.0
2017-Nov-11 07:31N 27°55' W 082°27'0 0.0
2017-Nov-11 07:01N 27°55' W 082°27'0 0.0
2017-Nov-11 06:30N 27°55' W 082°27'0 0.0
2017-Nov-11 06:01N 27°55' W 082°27'0 0.0
2017-Nov-11 05:30N 27°55' W 082°27'0 0.0
2017-Nov-11 05:01N 27°55' W 082°27'0 0.0
2017-Nov-11 04:31N 27°55' W 082°27'0 0.0
2017-Nov-11 04:00N 27°55' W 082°27'0 0.0
2017-Nov-11 03:30N 27°55' W 082°27'0 0.0
2017-Nov-11 03:01N 27°55' W 082°27'0 0.0
2017-Nov-11 02:31N 27°55' W 082°27'0 0.0
2017-Nov-11 02:01N 27°55' W 082°27'0 0.0
2017-Nov-11 01:31N 27°55' W 082°27'0 0.0
2017-Nov-11 01:01N 27°55' W 082°27'0 0.0
2017-Nov-11 00:31N 27°55' W 082°27'0 0.0
2017-Nov-11 00:00N 27°55' W 082°27'0 0.0
2017-Nov-10 23:30N 27°55' W 082°27'0 0.0
2017-Nov-10 23:01N 27°55' W 082°27'0 0.0
2017-Nov-10 22:31N 27°55' W 082°27'0 0.0
2017-Nov-10 22:00N 27°55' W 082°27'0 0.0
2017-Nov-10 21:30N 27°55' W 082°27'2 3.5
2017-Nov-10 21:00N 27°54' W 082°26'5 5.7
2017-Nov-10 20:03N 27°48' W 082°25'0 2.1
2017-Nov-10 19:52N 27°48' W 082°25'0 0.9
2017-Nov-10 19:28N 27°48' W 082°25'10 0.6
2017-Nov-10 02:37N 27°42' W 082°33'2 8.0
2017-Nov-10 02:20N 27°44' W 082°32'3 8.3
2017-Nov-10 02:00N 27°47' W 082°31'4 8.7
2017-Nov-10 01:30N 27°49' W 082°27'4 8.8
2017-Nov-10 01:00N 27°53' W 082°26'2 4.3
2017-Nov-10 00:31N 27°55' W 082°27'0 0.0
2017-Nov-10 00:00N 27°55' W 082°27'0 0.0
2017-Nov-09 23:30N 27°55' W 082°27'0 0.0
2017-Nov-09 23:01N 27°55' W 082°27'0 0.0
2017-Nov-09 22:30N 27°55' W 082°27'0 0.0
2017-Nov-09 22:00N 27°55' W 082°27'0 0.0
2017-Nov-09 21:31N 27°55' W 082°27'0 0.0
2017-Nov-09 21:01N 27°55' W 082°27'0 0.0
2017-Nov-09 20:31N 27°55' W 082°27'0 0.5
2017-Nov-09 20:00N 27°55' W 082°27'0 0.4
2017-Nov-09 19:31N 27°55' W 082°27'0 0.5
2017-Nov-09 19:01N 27°55' W 082°27'0 0.0
2017-Nov-09 18:31N 27°55' W 082°27'0 0.0
2017-Nov-09 18:00N 27°55' W 082°27'0 0.0
2017-Nov-09 17:31N 27°55' W 082°27'0 0.0
2017-Nov-09 17:00N 27°55' W 082°27'0 0.0
2017-Nov-09 16:31N 27°55' W 082°27'0 0.0
2017-Nov-09 16:00N 27°55' W 082°27'0 0.0
2017-Nov-09 15:30N 27°55' W 082°27'0 0.0
2017-Nov-09 15:00N 27°55' W 082°27'0 0.0
2017-Nov-09 14:31N 27°55' W 082°27'0 0.0
2017-Nov-09 14:01N 27°55' W 082°27'0 0.0
2017-Nov-09 13:31N 27°55' W 082°27'0 0.0
2017-Nov-09 13:00N 27°55' W 082°27'0 0.0
2017-Nov-09 12:31N 27°55' W 082°27'0 0.0
2017-Nov-09 12:00N 27°55' W 082°27'0 0.0
2017-Nov-09 11:31N 27°55' W 082°27'0 0.0
2017-Nov-09 11:01N 27°55' W 082°27'0 0.0
2017-Nov-09 10:30N 27°55' W 082°27'0 0.0
2017-Nov-09 10:00N 27°55' W 082°27'0 0.0
2017-Nov-09 09:31N 27°55' W 082°27'0 0.0
2017-Nov-09 09:01N 27°55' W 082°27'0 0.0
2017-Nov-09 08:31N 27°55' W 082°27'0 0.0
2017-Nov-09 08:01N 27°55' W 082°27'1 1.2
2017-Nov-09 07:31N 27°55' W 082°27'1 2.5
2017-Nov-09 07:00N 27°56' W 082°26'1 1.7
2017-Nov-09 06:31N 27°55' W 082°26'0 0.0
2017-Nov-09 06:00N 27°55' W 082°26'0 0.0
2017-Nov-09 05:31N 27°55' W 082°26'0 0.0
2017-Nov-09 05:00N 27°55' W 082°26'0 0.0
2017-Nov-09 04:31N 27°55' W 082°26'0 0.0
2017-Nov-09 04:01N 27°55' W 082°26'0 0.0
2017-Nov-09 03:30N 27°55' W 082°26'1 1.9
2017-Nov-09 03:01N 27°54' W 082°26'0 0.0
2017-Nov-09 02:31N 27°54' W 082°26'0 0.8
2017-Nov-09 02:00N 27°54' W 082°26'1 1.1
2017-Nov-09 01:31N 27°55' W 082°27'0 1.0
2017-Nov-09 01:00N 27°54' W 082°26'0 0.0
2017-Nov-09 00:31N 27°54' W 082°26'0 0.0
2017-Nov-09 00:00N 27°54' W 082°26'0 0.0
2017-Nov-08 23:31N 27°54' W 082°26'4 6.2
2017-Nov-08 22:54N 27°51' W 082°27'3 1.6
2017-Nov-08 21:14N 27°51' W 082°24'0 2.2
2017-Nov-08 21:01N 27°51' W 082°24'2 4.6
2017-Nov-08 20:30N 27°51' W 082°27'3 5.5
2017-Nov-08 20:00N 27°53' W 082°26'2 4.8
2017-Nov-08 19:30N 27°56' W 082°26'0 0.0
2017-Nov-08 19:00N 27°56' W 082°26'1 1.2
2017-Nov-08 18:31N 27°55' W 082°26'1 2.1
2017-Nov-08 18:01N 27°55' W 082°27'0 0.0
2017-Nov-08 17:31N 27°55' W 082°27'0 0.0
2017-Nov-08 17:00N 27°55' W 082°27'0 0.0
2017-Nov-08 16:30N 27°55' W 082°27'0 0.5
2017-Nov-08 16:01N 27°55' W 082°27'1 1.4
2017-Nov-08 15:31N 27°54' W 082°26'0 0.0
2017-Nov-08 15:01N 27°54' W 082°26'0 0.0
2017-Nov-08 14:30N 27°54' W 082°26'0 0.0
2017-Nov-08 14:00N 27°54' W 082°26'0 0.0
2017-Nov-08 13:30N 27°54' W 082°26'0 0.0
2017-Nov-08 13:01N 27°54' W 082°26'0 0.0
2017-Nov-08 12:30N 27°54' W 082°26'0 0.0
2017-Nov-08 12:01N 27°54' W 082°26'1 1.4
2017-Nov-08 11:31N 27°54' W 082°26'1 1.8
2017-Nov-08 11:00N 27°54' W 082°25'0 0.0
2017-Nov-08 10:30N 27°54' W 082°25'2 4.4
2017-Nov-08 10:00N 27°55' W 082°27'0 0.0
2017-Nov-08 09:30N 27°55' W 082°27'0 0.0
2017-Nov-08 09:00N 27°55' W 082°27'0 0.0
2017-Nov-08 08:30N 27°55' W 082°27'0 0.0
2017-Nov-08 08:00N 27°55' W 082°27'0 0.0
2017-Nov-08 07:30N 27°55' W 082°27'0 0.0
2017-Nov-08 07:01N 27°55' W 082°27'0 0.0
2017-Nov-08 06:31N 27°55' W 082°27'0 0.0
2017-Nov-08 06:00N 27°55' W 082°27'0 0.0
2017-Nov-08 05:30N 27°55' W 082°27'0 0.0
2017-Nov-08 05:00N 27°55' W 082°27'0 0.0
2017-Nov-08 04:30N 27°55' W 082°27'0 0.0
2017-Nov-08 04:00N 27°55' W 082°27'0 0.0
2017-Nov-08 03:30N 27°55' W 082°27'0 0.0
2017-Nov-08 03:01N 27°55' W 082°27'1 2.5
2017-Nov-08 02:30N 27°57' W 082°27'0 0.3
2017-Nov-08 02:01N 27°57' W 082°27'1 2.7
2017-Nov-08 01:30N 27°55' W 082°27'0 0.1
2017-Nov-08 01:00N 27°55' W 082°27'0 0.0
2017-Nov-08 00:30N 27°55' W 082°27'0 0.0
2017-Nov-08 00:00N 27°55' W 082°27'0 0.0
2017-Nov-07 23:30N 27°55' W 082°27'0 0.0
2017-Nov-07 23:01N 27°55' W 082°27'0 0.0
2017-Nov-07 22:30N 27°55' W 082°27'0 0.0
2017-Nov-07 22:01N 27°55' W 082°27'0 0.0
2017-Nov-07 21:31N 27°55' W 082°27'3 5.6
2017-Nov-07 20:59N 27°52' W 082°26'4 3.7
2017-Nov-07 19:50N 27°48' W 082°25'  

Dump ship's entire track history